Palito Blanco, Texas
Current Conditions -  °F | °C
As of 9:53 AM on Saturday 25 Oct 2014 (Local Time) from KALI Reporting Station
Clear Clear  
Wind Chill: 74°   Ceiling: Unl
Heat Index: 74°   Visibility: 10mi
Dew Point: 63°   Wind: 5mph
Humidity: 68%   Direction: 250°WSW
Pressure: 30.17"   Gusts: NA
Location:  27.6821°N, 98.1034°W
Report Text: KALI 251453Z AUTO 25004KT 10SM CLR 23/17 A3017 RMK AO2 SLP216 T02330172 53016
Loading
Personal Weather Stations






























Interactive Weather Map New forecast layout! Learn more

10-Day Weather Forecast

Advertisements
Track Severe Weather on mobile